Time;durP1;ratioP1;P1;durP2;ratioP2;P2;SDS_P1;SDS_P2;PMS_P1;PMS_P2;Temp;Humidity;BMP_temperature;BMP_pressure;BME280_temperature;BME280_humidity;BME280_pressure;Samples;Min_cycle;Max_cycle;Signal;HPM_P1;HPM_P2
2022/04/08 00:00:18;;;;;;;11.18;3.33;;;7.50;79.00;;;;;;5038780;28;20171;-85
2022/04/08 00:02:44;;;;;;;9.73;3.77;;;7.60;79.00;;;;;;5038287;28;20274;-85
2022/04/08 00:05:10;;;;;;;8.90;3.60;;;7.50;79.00;;;;;;5038786;28;20465;-84
2022/04/08 00:07:36;;;;;;;6.15;3.53;;;7.50;79.20;;;;;;5039287;28;20185;-85
2022/04/08 00:10:06;;;;;;;12.48;3.42;;;7.50;79.10;;;;;;5040094;28;20206;-85
2022/04/08 00:12:32;;;;;;;7.25;2.70;;;7.60;78.80;;;;;;5039371;28;20222;-85
2022/04/08 00:14:59;;;;;;;13.45;3.83;;;7.60;78.70;;;;;;5034604;28;20198;-85
2022/04/08 00:17:25;;;;;;;8.63;3.35;;;7.50;78.70;;;;;;5022769;28;20178;-86
2022/04/08 00:19:51;;;;;;;8.13;3.50;;;7.60;78.60;;;;;;5020478;28;20183;-85
2022/04/08 00:22:18;;;;;;;8.47;3.37;;;7.60;78.60;;;;;;5019220;28;20225;-85
2022/04/08 00:24:44;;;;;;;9.20;2.65;;;7.60;78.50;;;;;;5017769;28;20437;-85
2022/04/08 00:27:10;;;;;;;5.10;2.85;;;7.70;78.40;;;;;;5018730;28;20193;-86
2022/04/08 00:29:36;;;;;;;11.30;3.50;;;7.70;78.30;;;;;;5019338;28;20175;-85
2022/04/08 00:32:02;;;;;;;5.17;2.67;;;7.70;78.30;;;;;;5018010;28;20566;-84
2022/04/08 00:34:28;;;;;;;6.00;3.40;;;7.70;78.10;;;;;;5000184;28;20652;-85
2022/04/08 00:36:55;;;;;;;5.13;3.13;;;7.70;78.10;;;;;;4998678;28;20422;-85
2022/04/08 00:39:25;;;;;;;6.15;2.95;;;7.80;78.10;;;;;;5013602;28;20269;-85
2022/04/08 00:41:51;;;;;;;4.57;3.20;;;7.90;78.00;;;;;;5017794;28;20205;-85
2022/04/08 00:44:17;;;;;;;5.97;3.20;;;8.00;77.90;;;;;;5016796;28;20222;-85
2022/04/08 00:46:43;;;;;;;7.13;3.42;;;7.90;77.90;;;;;;5017921;28;20206;-85
2022/04/08 00:49:10;;;;;;;11.02;3.33;;;7.90;77.70;;;;;;5024641;28;20264;-85
2022/04/08 00:51:36;;;;;;;6.70;3.85;;;8.00;77.60;;;;;;5025887;28;20746;-85
2022/04/08 00:54:03;;;;;;;8.30;3.00;;;8.00;77.70;;;;;;5020312;28;20185;-85
2022/04/08 00:56:30;;;;;;;7.43;3.30;;;8.00;77.60;;;;;;5017456;28;20185;-85
2022/04/08 00:58:56;;;;;;;14.50;3.90;;;7.90;77.70;;;;;;5016632;28;20206;-84
2022/04/08 01:01:24;;;;;;;10.35;3.15;;;7.90;77.90;;;;;;5015426;28;20198;-85
2022/04/08 01:03:53;;;;;;;8.55;3.65;;;7.90;78.00;;;;;;5014988;28;20202;-85
2022/04/08 01:06:22;;;;;;;10.43;4.00;;;7.90;78.00;;;;;;5015426;28;20206;-85
2022/04/08 01:08:50;;;;;;;6.88;3.53;;;7.90;77.90;;;;;;5016206;28;20706;-86
2022/04/08 01:11:16;;;;;;;5.57;3.28;;;7.90;78.20;;;;;;5018499;28;20178;-85
2022/04/08 01:13:42;;;;;;;8.27;3.88;;;7.90;78.30;;;;;;5028137;28;20222;-85
2022/04/08 01:16:09;;;;;;;8.02;2.97;;;7.80;78.30;;;;;;5028320;28;20228;-85
2022/04/08 01:18:35;;;;;;;8.70;3.53;;;7.80;78.20;;;;;;5016761;28;20194;-85
2022/04/08 01:21:05;;;;;;;5.88;2.50;;;7.70;78.40;;;;;;5021998;28;20213;-85
2022/04/08 01:23:35;;;;;;;13.80;3.30;;;7.80;78.40;;;;;;5031563;28;20226;-85
2022/04/08 01:26:08;;;;;;;7.03;3.03;;;7.90;77.90;;;;;;5027503;28;20230;-85
2022/04/08 01:28:34;;;;;;;11.40;3.35;;;7.80;78.00;;;;;;5028996;28;20161;-85
2022/04/08 01:31:01;;;;;;;8.60;3.15;;;7.90;77.80;;;;;;5022444;28;20174;-85
2022/04/08 01:33:26;;;;;;;7.38;3.15;;;7.80;77.60;;;;;;5018024;28;20205;-84
2022/04/08 01:38:25;;;;;;;10.05;3.80;;;7.60;77.70;;;;;;4985795;28;20470;-86
2022/04/08 01:40:51;;;;;;;8.05;3.40;;;7.60;77.70;;;;;;4965152;28;20323;-86
2022/04/08 01:43:17;;;;;;;5.23;3.07;;;7.50;78.10;;;;;;4962169;28;20266;-86
2022/04/08 01:45:43;;;;;;;4.20;3.10;;;7.50;78.20;;;;;;4960815;28;20546;-87
2022/04/08 01:48:09;;;;;;;7.87;3.50;;;7.50;78.20;;;;;;4976410;28;20439;-86
2022/04/08 01:50:35;;;;;;;8.27;3.38;;;7.50;78.10;;;;;;4960337;28;20179;-86
2022/04/08 01:53:01;;;;;;;6.73;2.97;;;7.50;78.10;;;;;;4970080;28;20239;-86
2022/04/08 01:55:27;;;;;;;8.57;3.70;;;7.40;78.20;;;;;;4961160;28;20419;-86
2022/04/08 01:57:52;;;;;;;6.27;4.30;;;7.30;78.30;;;;;;4976848;28;20206;-86
2022/04/08 02:00:18;;;;;;;8.07;4.33;;;7.30;78.50;;;;;;4976930;28;20191;-86
2022/04/08 02:02:45;;;;;;;7.73;4.27;;;7.20;78.40;;;;;;4975268;28;20219;-86
2022/04/08 02:05:11;;;;;;;7.20;3.90;;;7.30;78.70;;;;;;4976627;28;20454;-85
2022/04/08 02:07:37;;;;;;;8.80;4.30;;;7.20;78.40;;;;;;4975961;28;20223;-85
2022/04/08 02:10:04;;;;;;;7.60;3.85;;;7.20;78.60;;;;;;4975551;28;20188;-86
2022/04/08 02:12:30;;;;;;;6.93;3.60;;;7.20;78.60;;;;;;4975083;28;20218;-86
2022/04/08 02:14:56;;;;;;;5.55;2.83;;;7.20;78.60;;;;;;4976573;28;20526;-87
2022/04/08 02:17:25;;;;;;;5.63;3.73;;;7.20;78.70;;;;;;4980150;28;20204;-86
2022/04/08 02:19:52;;;;;;;8.25;4.53;;;7.10;78.70;;;;;;4974453;28;20462;-86
2022/04/08 02:22:20;;;;;;;3.90;2.85;;;7.10;78.80;;;;;;4973556;28;20183;-86
2022/04/08 02:24:47;;;;;;;6.40;3.70;;;7.10;79.00;;;;;;4974494;28;20238;-87
2022/04/08 02:27:13;;;;;;;7.68;4.65;;;7.00;78.90;;;;;;4976083;28;20200;-86
2022/04/08 02:29:38;;;;;;;6.70;4.30;;;7.00;79.00;;;;;;4978379;28;20608;-86
2022/04/08 02:32:05;;;;;;;8.23;4.47;;;7.00;79.00;;;;;;4983488;28;20434;-86
2022/04/08 02:34:30;;;;;;;6.38;4.15;;;7.10;78.90;;;;;;4980691;28;20876;-85
2022/04/08 02:36:56;;;;;;;6.40;4.70;;;7.00;78.70;;;;;;4974523;28;20211;-86
2022/04/08 02:39:22;;;;;;;13.07;6.03;;;7.00;78.80;;;;;;4959308;28;20183;-86
2022/04/08 02:41:48;;;;;;;14.40;6.43;;;7.00;78.70;;;;;;4974849;28;20243;-86
2022/04/08 02:44:13;;;;;;;16.77;6.10;;;6.90;78.90;;;;;;4974760;28;20176;-85
2022/04/08 02:46:39;;;;;;;8.47;4.53;;;6.80;78.90;;;;;;4974260;28;20215;-86
2022/04/08 02:49:05;;;;;;;9.47;4.67;;;6.80;78.90;;;;;;4974355;28;20186;-86
2022/04/08 02:51:30;;;;;;;6.77;4.10;;;6.80;79.00;;;;;;4974344;28;20184;-87
2022/04/08 02:53:56;;;;;;;12.43;4.30;;;6.80;78.90;;;;;;4958530;28;20461;-87
2022/04/08 02:56:22;;;;;;;6.07;3.80;;;6.70;79.10;;;;;;4958685;28;20219;-86
2022/04/08 02:58:48;;;;;;;6.57;4.00;;;6.80;79.20;;;;;;4975004;28;20187;-85
2022/04/08 03:01:15;;;;;;;9.75;3.97;;;6.80;79.10;;;;;;4975585;28;20300;-86
2022/04/08 03:03:41;;;;;;;8.15;4.10;;;6.70;79.20;;;;;;4975516;28;20183;-86
2022/04/08 03:06:08;;;;;;;6.80;4.40;;;6.70;79.20;;;;;;4976838;28;20762;-88
2022/04/08 03:08:34;;;;;;;8.95;3.97;;;6.70;79.30;;;;;;4995089;28;20407;-91
2022/04/08 03:11:00;;;;;;;5.85;3.70;;;6.70;79.30;;;;;;4995758;28;20207;-87
2022/04/08 03:13:26;;;;;;;4.83;3.93;;;6.60;79.40;;;;;;4979172;28;20192;-87
2022/04/08 03:15:52;;;;;;;9.57;4.30;;;6.60;79.60;;;;;;4984824;28;20450;-85
2022/04/08 03:18:18;;;;;;;14.35;4.28;;;6.60;79.70;;;;;;4976604;28;20184;-86
2022/04/08 03:20:44;;;;;;;7.57;4.00;;;6.60;80.00;;;;;;4974131;28;20242;-86
2022/04/08 03:23:10;;;;;;;10.67;4.00;;;6.60;79.90;;;;;;4974068;28;20423;-86
2022/04/08 03:25:36;;;;;;;7.47;4.55;;;6.70;79.90;;;;;;4973508;28;20454;-86
2022/04/08 03:28:02;;;;;;;5.23;3.77;;;6.60;79.60;;;;;;4975023;28;20621;-87
2022/04/08 03:30:28;;;;;;;4.70;4.13;;;6.50;79.50;;;;;;4974628;28;20179;-85
2022/04/08 03:32:56;;;;;;;11.13;5.00;;;6.50;79.20;;;;;;4974350;28;20200;-86
2022/04/08 03:35:22;;;;;;;7.07;3.88;;;6.50;79.00;;;;;;4976916;28;20192;-86
2022/04/08 03:37:48;;;;;;;6.30;3.47;;;6.50;78.90;;;;;;4977293;28;20567;-89
2022/04/08 03:40:14;;;;;;;10.20;4.50;;;6.50;78.90;;;;;;4976905;28;20180;-85
2022/04/08 03:42:59;;;;;;;5.65;4.10;;;6.40;78.80;;;;;;4960375;28;20218;-86
2022/04/08 03:45:25;;;;;;;7.72;4.10;;;6.50;79.00;;;;;;4976522;28;20207;-86
2022/04/08 03:47:51;;;;;;;8.33;4.70;;;6.50;79.20;;;;;;4976574;28;20200;-86
2022/04/08 03:50:17;;;;;;;12.80;6.10;;;6.40;79.30;;;;;;4977615;28;20460;-86
2022/04/08 03:52:43;;;;;;;9.13;4.60;;;6.40;79.70;;;;;;4975762;28;20416;-87
2022/04/08 03:55:09;;;;;;;8.80;4.35;;;6.40;79.90;;;;;;4976548;28;20180;-87
2022/04/08 03:57:35;;;;;;;14.10;5.10;;;6.40;80.00;;;;;;4978482;28;20285;-86
2022/04/08 04:00:01;;;;;;;8.73;5.23;;;6.40;80.20;;;;;;4976577;28;20188;-87
2022/04/08 04:02:26;;;;;;;9.57;5.10;;;6.30;80.40;;;;;;4976027;28;20238;-86
2022/04/08 04:04:55;;;;;;;9.63;5.83;;;6.30;80.50;;;;;;4977186;28;20469;-86
2022/04/08 04:07:20;;;;;;;8.20;4.68;;;6.40;80.40;;;;;;4977060;28;20211;-85
2022/04/08 04:09:46;;;;;;;9.80;5.30;;;6.40;80.30;;;;;;4978038;28;20203;-86
2022/04/08 04:12:12;;;;;;;10.45;4.97;;;6.30;80.40;;;;;;4977288;28;20188;-86
2022/04/08 04:14:38;;;;;;;13.03;5.77;;;6.30;80.60;;;;;;4978704;28;20226;-86
2022/04/08 04:17:04;;;;;;;9.83;6.47;;;6.30;80.50;;;;;;4979765;28;20196;-86
2022/04/08 04:19:30;;;;;;;8.98;5.97;;;6.40;80.40;;;;;;4961900;28;20739;-86
2022/04/08 04:21:55;;;;;;;12.43;6.60;;;6.40;80.40;;;;;;4977744;28;20184;-86
2022/04/08 04:24:21;;;;;;;9.93;6.07;;;6.30;80.80;;;;;;4979470;28;20180;-86
2022/04/08 04:26:47;;;;;;;10.00;5.40;;;6.20;80.90;;;;;;4977636;28;20294;-86
2022/04/08 04:29:13;;;;;;;7.87;5.23;;;6.10;81.20;;;;;;4977984;28;20235;-87
2022/04/08 04:31:39;;;;;;;10.10;5.57;;;6.20;81.40;;;;;;4978732;28;20267;-89
2022/04/08 04:34:05;;;;;;;9.10;5.47;;;6.20;81.30;;;;;;4978966;28;20180;-86
2022/04/08 04:36:31;;;;;;;16.30;6.17;;;6.10;81.40;;;;;;4978701;28;20243;-86
2022/04/08 04:38:57;;;;;;;9.82;5.35;;;6.20;81.60;;;;;;4968910;28;20415;-85
2022/04/08 04:41:23;;;;;;;8.70;5.33;;;6.20;81.60;;;;;;4962407;28;20682;-86
2022/04/08 04:43:49;;;;;;;7.57;5.10;;;6.20;81.70;;;;;;4962505;28;20184;-86
2022/04/08 04:46:15;;;;;;;9.57;6.25;;;6.20;81.80;;;;;;4980537;28;20854;-87
2022/04/08 04:48:41;;;;;;;10.87;6.20;;;6.20;81.90;;;;;;4964878;28;20288;-89
2022/04/08 04:51:06;;;;;;;8.27;6.30;;;6.10;82.10;;;;;;4973334;28;20199;-85
2022/04/08 04:53:32;;;;;;;11.07;6.10;;;6.20;82.20;;;;;;4991242;28;20424;-86
2022/04/08 04:55:58;;;;;;;12.60;7.27;;;6.20;82.20;;;;;;4972439;28;20180;-86
2022/04/08 04:58:24;;;;;;;12.38;6.75;;;6.20;82.30;;;;;;4963655;28;20648;-86
2022/04/08 05:00:50;;;;;;;10.93;6.17;;;6.10;82.40;;;;;;4980012;28;20184;-86
2022/04/08 05:03:16;;;;;;;12.13;7.60;;;6.10;82.60;;;;;;4963315;28;20427;-86
2022/04/08 05:05:42;;;;;;;14.03;7.63;;;6.20;82.80;;;;;;4968509;28;20275;-86
2022/04/08 05:08:08;;;;;;;18.23;7.40;;;6.30;82.70;;;;;;4972349;28;20207;-87
2022/04/08 05:10:33;;;;;;;10.00;5.83;;;6.20;82.40;;;;;;4979583;28;20789;-85
2022/04/08 05:13:00;;;;;;;10.20;7.10;;;6.20;82.40;;;;;;4961361;28;20842;-89
2022/04/08 05:15:26;;;;;;;11.30;6.80;;;6.20;82.50;;;;;;4961495;28;20690;-88
2022/04/08 05:17:53;;;;;;;12.20;7.05;;;6.20;82.40;;;;;;4959416;28;20231;-86
2022/04/08 05:20:18;;;;;;;10.00;6.30;;;6.20;82.30;;;;;;4976167;28;20180;-86
2022/04/08 05:22:44;;;;;;;10.17;6.53;;;6.30;82.50;;;;;;4975797;28;20190;-86
2022/04/08 05:25:10;;;;;;;9.00;6.20;;;6.30;82.10;;;;;;4959686;28;20562;-86
2022/04/08 05:27:37;;;;;;;19.77;6.97;;;6.30;82.00;;;;;;4959701;28;20262;-86
2022/04/08 05:30:18;;;;;;;19.98;8.13;;;6.30;82.00;;;;;;4958486;28;20468;-86
2022/04/08 05:32:48;;;;;;;10.32;7.13;;;6.30;81.90;;;;;;4959204;28;20206;-86
2022/04/08 05:35:17;;;;;;;14.63;6.50;;;6.30;82.00;;;;;;4976479;28;20229;-85
2022/04/08 05:37:47;;;;;;;12.05;7.22;;;6.40;81.90;;;;;;4976499;28;20215;-86
2022/04/08 05:40:16;;;;;;;12.75;6.40;;;6.40;81.80;;;;;;4959352;28;20176;-86
2022/04/08 05:42:44;;;;;;;8.75;5.75;;;6.40;81.40;;;;;;4958569;28;20187;-87
2022/04/08 05:45:16;;;;;;;12.48;7.78;;;6.60;81.20;;;;;;4958785;28;20234;-86
2022/04/08 05:47:42;;;;;;;12.82;6.00;;;6.60;80.70;;;;;;4958826;28;20203;-86
2022/04/08 05:50:09;;;;;;;10.00;6.50;;;6.80;80.40;;;;;;4960364;28;20701;-86
2022/04/08 05:52:35;;;;;;;9.27;5.30;;;6.90;80.00;;;;;;4965607;28;20191;-86
2022/04/08 05:55:00;;;;;;;17.70;6.68;;;7.00;79.30;;;;;;4979592;28;20460;-87
2022/04/08 05:57:26;;;;;;;9.37;5.70;;;7.20;78.80;;;;;;4996526;28;20204;-86
2022/04/08 05:59:59;;;;;;;8.63;4.60;;;7.30;77.80;;;;;;4997843;28;20419;-86
2022/04/08 06:02:25;;;;;;;9.57;5.28;;;7.40;77.00;;;;;;4996443;28;20203;-86
2022/04/08 06:04:50;;;;;;;9.80;5.33;;;7.50;76.70;;;;;;4990446;28;20195;-85
2022/04/08 06:07:16;;;;;;;12.10;4.67;;;7.50;76.30;;;;;;4978201;28;20443;-85
2022/04/08 06:09:42;;;;;;;10.37;5.90;;;7.70;75.90;;;;;;4976811;28;20176;-86
2022/04/08 06:12:08;;;;;;;6.47;4.60;;;7.80;75.20;;;;;;4976028;28;20560;-86
2022/04/08 06:14:34;;;;;;;7.13;4.00;;;7.80;74.70;;;;;;4959509;28;20187;-87
2022/04/08 06:17:04;;;;;;;10.57;4.30;;;8.00;74.20;;;;;;4959537;28;20439;-86
2022/04/08 06:19:29;;;;;;;8.27;4.05;;;8.20;73.50;;;;;;4959448;28;20412;-86
2022/04/08 06:21:55;;;;;;;17.30;4.57;;;8.00;73.20;;;;;;4958822;28;20191;-85
2022/04/08 06:24:21;;;;;;;7.97;4.43;;;8.20;73.60;;;;;;4959150;28;20180;-86
2022/04/08 06:26:46;;;;;;;11.63;5.30;;;8.00;72.90;;;;;;4958528;28;20263;-86
2022/04/08 06:29:12;;;;;;;6.60;4.33;;;7.90;73.50;;;;;;4958447;28;20176;-86
2022/04/08 06:31:38;;;;;;;15.17;4.70;;;7.90;73.70;;;;;;4958549;28;20258;-88
2022/04/08 06:34:04;;;;;;;5.63;4.20;;;7.80;73.50;;;;;;4976071;28;20423;-86
2022/04/08 06:36:29;;;;;;;8.27;5.27;;;7.70;73.80;;;;;;4976569;28;20218;-86
2022/04/08 06:38:55;;;;;;;7.30;4.00;;;7.80;73.90;;;;;;4976132;28;20184;-86
2022/04/08 06:41:21;;;;;;;7.03;5.03;;;7.70;74.00;;;;;;4976290;28;20183;-86
2022/04/08 06:43:47;;;;;;;6.87;4.33;;;7.50;74.40;;;;;;4958976;28;20180;-86
2022/04/08 06:46:13;;;;;;;10.73;4.90;;;7.60;74.70;;;;;;4975079;28;20478;-86
2022/04/08 06:48:39;;;;;;;12.00;6.13;;;7.70;74.80;;;;;;4958793;28;20179;-86
2022/04/08 06:51:05;;;;;;;4.50;4.00;;;7.80;75.30;;;;;;4958561;28;20695;-88
2022/04/08 06:53:32;;;;;;;6.17;4.30;;;7.80;74.50;;;;;;4956395;29;20464;-89
2022/04/08 06:56:01;;;;;;;6.30;4.05;;;7.80;74.10;;;;;;4957583;28;20468;-86
2022/04/08 06:58:27;;;;;;;8.70;3.33;;;7.90;73.90;;;;;;4956223;29;20185;-86
2022/04/08 07:00:54;;;;;;;6.85;4.15;;;8.10;73.80;;;;;;4955749;29;20180;-88
2022/04/08 07:03:20;;;;;;;11.32;5.20;;;8.10;73.50;;;;;;4955013;29;20310;-87
2022/04/08 07:05:46;;;;;;;6.13;4.57;;;8.00;73.70;;;;;;4956566;29;20204;-85
2022/04/08 07:08:12;;;;;;;15.60;5.28;;;7.90;74.00;;;;;;4958604;28;20197;-87
2022/04/08 07:10:40;;;;;;;10.23;5.40;;;8.00;74.40;;;;;;4961521;29;20556;-87
2022/04/08 07:13:08;;;;;;;6.65;3.92;;;8.30;73.40;;;;;;4963036;28;20447;-86
2022/04/08 07:15:34;;;;;;;11.60;4.57;;;8.30;73.00;;;;;;4962388;29;20671;-87
2022/04/08 07:18:03;;;;;;;7.73;4.20;;;8.30;73.00;;;;;;4961645;28;20208;-89
2022/04/08 07:20:28;;;;;;;10.48;4.80;;;8.30;73.60;;;;;;4962120;28;20652;-86
2022/04/08 07:22:54;;;;;;;9.50;4.23;;;8.70;71.30;;;;;;4960226;29;20216;-87
2022/04/08 07:25:20;;;;;;;10.70;3.90;;;8.60;70.30;;;;;;4975599;28;20486;-87
2022/04/08 07:27:51;;;;;;;8.90;4.53;;;8.20;71.00;;;;;;4980485;28;20435;-88
2022/04/08 07:30:20;;;;;;;6.82;4.15;;;8.00;72.30;;;;;;4962825;28;20423;-86
2022/04/08 07:32:48;;;;;;;5.60;3.80;;;8.30;72.10;;;;;;4980016;28;20287;-86
2022/04/08 07:35:14;;;;;;;6.53;3.95;;;8.50;71.50;;;;;;4963125;28;20644;-86
2022/04/08 07:37:40;;;;;;;11.03;4.10;;;8.80;70.40;;;;;;4962620;28;20223;-86
2022/04/08 07:40:11;;;;;;;8.00;3.88;;;8.60;69.50;;;;;;4980759;28;20517;-86
2022/04/08 07:42:38;;;;;;;6.28;3.47;;;8.40;70.10;;;;;;4963373;28;20180;-86
2022/04/08 07:45:05;;;;;;;7.78;4.65;;;8.30;70.80;;;;;;4962625;28;20215;-86
2022/04/08 07:47:31;;;;;;;4.05;2.95;;;8.30;70.80;;;;;;4963220;28;20232;-86
2022/04/08 07:50:05;;;;;;;5.90;3.67;;;8.60;70.40;;;;;;4963051;28;20183;-88
2022/04/08 07:52:31;;;;;;;5.38;3.97;;;8.30;70.00;;;;;;4969117;28;20426;-88
2022/04/08 07:54:57;;;;;;;8.60;4.30;;;8.50;70.40;;;;;;4980006;28;20180;-86
2022/04/08 07:57:23;;;;;;;11.18;4.10;;;8.70;71.20;;;;;;4979898;28;20453;-86
2022/04/08 07:59:49;;;;;;;8.27;3.45;;;9.10;68.90;;;;;;4979485;28;20275;-89
2022/04/08 08:02:15;;;;;;;7.77;2.73;;;9.20;68.20;;;;;;4979976;28;20206;-86
2022/04/08 08:04:41;;;;;;;7.50;3.47;;;9.00;68.10;;;;;;4981958;28;20198;-89
2022/04/08 08:07:07;;;;;;;9.80;3.83;;;9.30;67.60;;;;;;4990360;28;20462;-86
2022/04/08 08:09:33;;;;;;;6.65;3.53;;;9.30;66.90;;;;;;4971785;28;20200;-85
2022/04/08 08:12:00;;;;;;;12.52;4.80;;;9.20;67.30;;;;;;4961388;28;20190;-86
2022/04/08 08:14:26;;;;;;;12.43;3.33;;;9.40;66.70;;;;;;4960808;28;20176;-87
2022/04/08 08:16:52;;;;;;;9.03;3.90;;;9.20;66.90;;;;;;4960512;28;20599;-86
2022/04/08 08:19:18;;;;;;;12.60;3.60;;;9.20;67.20;;;;;;4960227;28;20180;-86
2022/04/08 08:21:43;;;;;;;9.03;3.20;;;9.30;67.40;;;;;;4960208;28;20432;-89
2022/04/08 08:24:09;;;;;;;6.67;3.67;;;9.40;66.30;;;;;;4961884;28;20506;-86
2022/04/08 08:26:35;;;;;;;8.17;3.30;;;9.10;66.40;;;;;;4960640;28;20498;-86
2022/04/08 08:29:01;;;;;;;10.53;3.57;;;9.40;66.20;;;;;;4977945;28;20451;-86
2022/04/08 08:31:27;;;;;;;6.70;2.88;;;9.90;65.20;;;;;;4971702;28;20288;-86
2022/04/08 08:33:52;;;;;;;8.87;2.97;;;10.10;62.90;;;;;;4978603;28;20211;-86
2022/04/08 08:36:18;;;;;;;3.70;2.67;;;9.80;62.80;;;;;;4979898;28;20439;-86
2022/04/08 08:38:44;;;;;;;6.10;2.20;;;9.80;63.40;;;;;;4978023;28;20283;-86
2022/04/08 08:41:10;;;;;;;8.90;3.37;;;10.20;62.60;;;;;;4981807;28;20879;-86
2022/04/08 08:43:37;;;;;;;7.05;2.53;;;10.40;61.70;;;;;;4972201;28;20180;-86
2022/04/08 08:46:04;;;;;;;5.82;3.00;;;9.90;61.70;;;;;;4971303;28;20216;-86
2022/04/08 08:48:33;;;;;;;6.55;3.30;;;9.80;62.40;;;;;;4980058;28;20206;-89
2022/04/08 08:51:05;;;;;;;7.22;2.55;;;10.40;61.40;;;;;;4982811;28;20199;-87
2022/04/08 08:53:32;;;;;;;6.97;3.17;;;10.50;60.80;;;;;;4981801;28;20187;-86
2022/04/08 08:55:58;;;;;;;10.63;4.18;;;10.30;60.70;;;;;;4966154;28;20180;-86
2022/04/08 08:58:24;;;;;;;10.30;3.40;;;10.40;61.00;;;;;;4977970;28;20184;-86
2022/04/08 09:00:50;;;;;;;8.00;2.30;;;10.50;60.50;;;;;;4961132;28;20862;-86
2022/04/08 09:03:16;;;;;;;7.90;2.42;;;10.30;61.00;;;;;;4961365;28;20438;-85
2022/04/08 09:05:47;;;;;;;5.90;3.20;;;10.40;61.30;;;;;;4960897;28;20208;-86
2022/04/08 09:08:14;;;;;;;9.02;3.40;;;10.50;60.00;;;;;;4960892;28;20439;-86
2022/04/08 09:10:51;;;;;;;11.07;3.17;;;10.60;60.30;;;;;;4960062;28;20215;-85
2022/04/08 09:13:20;;;;;;;4.45;1.98;;;10.50;60.70;;;;;;4960376;28;20234;-85
2022/04/08 09:16:00;;;;;;;9.15;2.80;;;10.40;60.70;;;;;;4961511;28;20180;-86
2022/04/08 09:18:30;;;;;;;8.95;3.00;;;10.50;60.20;;;;;;4960672;28;20253;-86
2022/04/08 09:20:56;;;;;;;5.57;2.53;;;10.20;60.30;;;;;;4978461;28;20183;-86
2022/04/08 09:23:24;;;;;;;4.35;2.20;;;10.10;59.50;;;;;;4977808;28;20180;-87
2022/04/08 09:25:59;;;;;;;4.85;2.03;;;10.10;59.70;;;;;;4961561;28;20266;-87
2022/04/08 09:28:25;;;;;;;6.80;2.25;;;10.30;59.70;;;;;;4961639;28;20247;-87
2022/04/08 09:30:55;;;;;;;3.10;1.97;;;10.30;58.80;;;;;;4961686;28;20215;-88
2022/04/08 09:33:23;;;;;;;4.75;2.22;;;10.60;58.60;;;;;;4978743;28;20259;-86
2022/04/08 09:35:52;;;;;;;9.38;2.92;;;10.70;58.30;;;;;;4963519;28;20198;-86
2022/04/08 09:38:21;;;;;;;7.00;2.33;;;10.70;57.50;;;;;;4963484;28;20223;-85
2022/04/08 09:40:48;;;;;;;7.75;3.15;;;10.30;57.90;;;;;;4961344;28;20179;-85
2022/04/08 09:43:16;;;;;;;4.78;2.50;;;10.20;57.80;;;;;;4960181;28;20275;-85
2022/04/08 09:45:41;;;;;;;6.40;1.95;;;10.60;57.70;;;;;;4960497;28;20271;-85
2022/04/08 09:48:08;;;;;;;5.63;2.63;;;10.80;56.30;;;;;;4959661;28;20561;-86
2022/04/08 09:50:36;;;;;;;5.88;2.55;;;10.50;56.20;;;;;;4959637;28;20176;-85
2022/04/08 09:53:05;;;;;;;4.32;2.30;;;10.60;56.80;;;;;;4960047;28;20267;-85
2022/04/08 09:55:32;;;;;;;7.38;1.85;;;10.30;57.00;;;;;;4959650;28;20622;-85
2022/04/08 09:58:03;;;;;;;4.35;2.10;;;10.30;56.30;;;;;;4960029;28;20585;-85
2022/04/08 10:00:29;;;;;;;3.40;2.05;;;10.40;55.80;;;;;;4976951;28;20222;-85
2022/04/08 10:02:56;;;;;;;4.67;2.57;;;11.10;55.30;;;;;;4960784;28;20596;-85
2022/04/08 10:05:22;;;;;;;5.28;1.98;;;10.90;55.00;;;;;;4960852;28;20703;-85
2022/04/08 10:07:52;;;;;;;10.87;2.60;;;10.80;54.50;;;;;;4978514;28;20196;-84
2022/04/08 10:10:24;;;;;;;7.57;1.80;;;10.50;54.70;;;;;;4960721;28;20423;-84
2022/04/08 10:13:08;;;;;;;5.78;2.90;;;10.70;55.10;;;;;;4976528;28;20194;-85
2022/04/08 10:15:43;;;;;;;4.13;1.90;;;11.20;53.70;;;;;;4976702;28;20171;-85
2022/04/08 10:18:09;;;;;;;5.35;2.25;;;10.90;52.60;;;;;;4977033;28;20210;-85
2022/04/08 10:20:37;;;;;;;3.35;1.90;;;10.90;53.40;;;;;;4959814;28;20179;-85
2022/04/08 10:23:08;;;;;;;4.50;2.58;;;10.50;53.50;;;;;;4958751;28;20187;-85
2022/04/08 10:25:41;;;;;;;7.70;2.15;;;10.60;54.10;;;;;;4958644;28;20275;-86
2022/04/08 10:28:09;;;;;;;6.38;2.50;;;10.40;54.50;;;;;;4966058;28;20204;-86
2022/04/08 10:30:43;;;;;;;8.95;2.58;;;10.30;54.30;;;;;;4958177;28;20194;-86
2022/04/08 10:33:09;;;;;;;4.75;2.28;;;10.80;54.50;;;;;;4956547;28;20249;-86
2022/04/08 10:35:37;;;;;;;5.00;2.30;;;11.20;53.60;;;;;;4957412;28;20180;-86
2022/04/08 10:38:05;;;;;;;3.67;1.90;;;11.20;53.20;;;;;;4956585;28;20216;-86
2022/04/08 10:40:36;;;;;;;6.00;2.33;;;11.30;52.70;;;;;;4957521;28;20183;-86
2022/04/08 10:43:09;;;;;;;5.47;1.90;;;11.20;52.40;;;;;;4976278;28;20176;-86
2022/04/08 10:45:36;;;;;;;6.22;2.40;;;11.10;51.30;;;;;;4960970;28;20238;-87
2022/04/08 10:48:11;;;;;;;5.07;1.90;;;10.70;52.00;;;;;;4961759;28;20203;-86
2022/04/08 10:50:39;;;;;;;5.20;2.25;;;10.80;52.90;;;;;;4978329;28;20179;-86
2022/04/08 10:53:13;;;;;;;11.07;2.75;;;11.10;51.40;;;;;;4961063;28;20190;-86
2022/04/08 10:56:10;;;;;;;7.88;2.20;;;10.70;51.90;;;;;;4977477;28;20206;-86
2022/04/08 10:58:44;;;;;;;4.63;2.28;;;10.80;52.40;;;;;;4977422;28;20219;-87
2022/04/08 11:01:23;;;;;;;6.43;2.72;;;11.30;51.90;;;;;;4977690;28;20176;-87
2022/04/08 11:04:03;;;;;;;7.88;2.53;;;11.40;51.40;;;;;;4977638;28;20191;-87
2022/04/08 11:06:30;;;;;;;4.25;2.30;;;11.00;51.50;;;;;;4960804;28;20217;-87
2022/04/08 11:08:57;;;;;;;4.53;2.50;;;11.00;52.00;;;;;;4976819;28;20180;-87
2022/04/08 11:11:34;;;;;;;3.97;2.70;;;10.90;52.00;;;;;;4979635;28;20720;-87
2022/04/08 11:14:02;;;;;;;7.55;2.03;;;11.10;51.40;;;;;;4981551;28;20218;-86
2022/04/08 11:16:33;;;;;;;6.28;1.42;;;10.90;51.20;;;;;;4978628;28;20619;-87
2022/04/08 11:18:59;;;;;;;5.25;2.15;;;10.60;51.20;;;;;;4985218;28;20182;-87
2022/04/08 11:21:25;;;;;;;3.60;2.20;;;11.00;51.80;;;;;;4980150;28;20258;-87
2022/04/08 11:24:06;;;;;;;4.40;2.38;;;11.50;50.50;;;;;;4968668;28;20272;-86
2022/04/08 11:26:44;;;;;;;8.75;1.98;;;11.50;49.40;;;;;;4974175;28;20211;-86
2022/04/08 11:29:17;;;;;;;6.65;2.58;;;11.30;49.50;;;;;;4996097;28;20164;-86
2022/04/08 11:31:46;;;;;;;4.68;2.70;;;10.90;50.60;;;;;;4982292;28;20172;-85
2022/04/08 11:34:13;;;;;;;5.28;2.63;;;10.60;51.00;;;;;;4999861;28;20346;-86
2022/04/08 11:36:40;;;;;;;6.75;2.92;;;10.80;51.30;;;;;;4996680;28;20482;-86
2022/04/08 11:39:06;;;;;;;5.00;2.72;;;11.10;51.30;;;;;;4989607;28;20176;-87
2022/04/08 11:41:33;;;;;;;8.48;3.17;;;11.60;50.70;;;;;;4978098;28;20179;-87
2022/04/08 11:44:01;;;;;;;6.35;2.92;;;11.20;50.30;;;;;;4976712;28;20274;-87
2022/04/08 11:46:27;;;;;;;3.75;2.97;;;10.90;50.70;;;;;;4976210;28;20220;-87
2022/04/08 11:48:53;;;;;;;3.88;2.42;;;11.00;51.20;;;;;;4980707;28;20183;-86
2022/04/08 11:51:20;;;;;;;9.50;3.10;;;11.30;49.50;;;;;;4961358;28;20507;-87
2022/04/08 11:53:48;;;;;;;8.55;2.67;;;11.40;49.90;;;;;;4976043;28;20172;-87
2022/04/08 11:56:26;;;;;;;4.18;2.20;;;10.90;49.30;;;;;;4977568;28;20274;-86
2022/04/08 11:59:02;;;;;;;6.40;3.28;;;10.60;50.60;;;;;;4978729;28;20180;-87
2022/04/08 12:01:39;;;;;;;5.57;2.20;;;10.80;51.80;;;;;;4987643;28;20289;-87
2022/04/08 12:04:11;;;;;;;8.95;3.17;;;11.40;49.40;;;;;;4983845;28;20211;-87
2022/04/08 12:06:45;;;;;;;13.32;3.70;;;11.20;49.50;;;;;;4975205;28;20299;-87
2022/04/08 12:09:17;;;;;;;11.65;4.45;;;10.80;50.50;;;;;;4975219;28;20186;-87
2022/04/08 12:11:45;;;;;;;4.53;2.03;;;10.40;50.40;;;;;;4975026;28;20176;-88
2022/04/08 12:14:12;;;;;;;14.43;3.60;;;10.20;50.50;;;;;;4975699;28;20176;-87
2022/04/08 12:16:39;;;;;;;9.82;2.33;;;10.40;51.00;;;;;;4975543;28;20235;-87
2022/04/08 12:19:06;;;;;;;9.60;3.28;;;11.10;50.10;;;;;;4981743;28;20184;-87
2022/04/08 12:21:32;;;;;;;21.35;4.10;;;11.40;48.50;;;;;;4976492;28;20188;-87
2022/04/08 12:24:03;;;;;;;11.00;2.72;;;11.40;48.40;;;;;;4975032;28;20180;-87
2022/04/08 12:26:34;;;;;;;7.25;3.13;;;11.00;48.70;;;;;;4977420;28;20758;-87
2022/04/08 12:29:14;;;;;;;4.38;2.63;;;10.50;49.40;;;;;;4978612;28;20231;-88
2022/04/08 12:31:50;;;;;;;5.78;2.65;;;10.30;50.40;;;;;;4966354;28;20183;-87
2022/04/08 12:34:17;;;;;;;7.32;3.40;;;10.30;50.80;;;;;;4961626;28;20168;-88
2022/04/08 12:36:44;;;;;;;5.80;2.90;;;10.30;51.00;;;;;;4963019;28;20270;-87
2022/04/08 12:39:13;;;;;;;6.68;2.63;;;10.20;50.60;;;;;;4960724;28;20195;-87
2022/04/08 12:41:40;;;;;;;7.65;4.07;;;10.20;51.00;;;;;;4959813;28;20180;-89
2022/04/08 12:44:07;;;;;;;7.05;3.33;;;10.50;50.90;;;;;;4978871;28;20171;-86
2022/04/08 12:46:33;;;;;;;8.13;3.03;;;10.70;51.00;;;;;;4959715;28;20832;-86
2022/04/08 12:48:59;;;;;;;7.90;3.60;;;11.20;50.60;;;;;;4959550;28;20285;-87
2022/04/08 12:51:25;;;;;;;8.97;3.70;;;11.20;49.50;;;;;;4980148;28;20198;-87
2022/04/08 12:53:50;;;;;;;16.77;3.93;;;11.30;49.60;;;;;;4960690;28;20415;-86